Time;durP1;ratioP1;P1;durP2;ratioP2;P2;SDS_P1;SDS_P2;PMS_P1;PMS_P2;Temp;Humidity;BMP_temperature;BMP_pressure;BME280_temperature;BME280_humidity;BME280_pressure;Samples;Min_cycle;Max_cycle;Signal;HPM_P1;HPM_P2
2022/12/12 00:00:28;;;;;;;5.22;3.30;;;3.20;99.90;;;;;;5098270;28;20563;-78
2022/12/12 00:02:55;;;;;;;4.80;3.17;;;3.30;99.90;;;;;;5098614;28;20020;-78
2022/12/12 00:05:21;;;;;;;4.13;2.88;;;3.30;99.90;;;;;;5081591;28;20475;-79
2022/12/12 00:07:46;;;;;;;5.22;3.25;;;3.30;99.90;;;;;;5098851;28;20089;-79
2022/12/12 00:10:12;;;;;;;6.30;4.00;;;3.30;99.90;;;;;;5099038;28;20020;-79
2022/12/12 00:12:38;;;;;;;5.40;3.17;;;3.20;99.90;;;;;;5080555;28;20403;-79
2022/12/12 00:15:04;;;;;;;4.57;3.40;;;3.10;99.90;;;;;;5098800;28;20024;-80
2022/12/12 00:17:30;;;;;;;6.10;3.80;;;3.00;99.90;;;;;;5098644;28;20024;-79
2022/12/12 00:19:56;;;;;;;4.78;3.15;;;3.00;99.90;;;;;;5080648;28;20102;-80
2022/12/12 00:22:21;;;;;;;4.75;3.00;;;3.00;99.90;;;;;;5098478;28;20028;-80
2022/12/12 00:24:47;;;;;;;4.88;3.00;;;3.10;99.90;;;;;;5098708;28;20020;-80
2022/12/12 00:27:13;;;;;;;4.60;3.25;;;3.20;99.90;;;;;;5080559;28;20043;-80
2022/12/12 00:29:38;;;;;;;5.28;3.40;;;3.20;99.90;;;;;;5098640;28;20051;-80
2022/12/12 00:32:04;;;;;;;5.97;3.28;;;3.20;99.90;;;;;;5098245;28;20028;-80
2022/12/12 00:34:30;;;;;;;5.35;3.33;;;3.20;99.90;;;;;;5098346;28;20024;-80
2022/12/12 00:36:55;;;;;;;4.55;3.08;;;3.30;99.90;;;;;;5080083;28;20405;-80
2022/12/12 00:39:22;;;;;;;5.07;3.10;;;3.30;99.90;;;;;;5102231;28;20065;-80
2022/12/12 00:41:48;;;;;;;5.10;3.28;;;3.30;99.90;;;;;;5084580;28;20023;-76
2022/12/12 00:44:14;;;;;;;5.15;3.42;;;3.30;99.90;;;;;;5113880;28;20361;-76
2022/12/12 00:46:39;;;;;;;5.57;3.45;;;3.30;99.90;;;;;;5112217;28;20089;-76
2022/12/12 00:49:05;;;;;;;5.10;3.55;;;3.20;99.90;;;;;;5100721;28;20077;-78
2022/12/12 00:51:31;;;;;;;4.80;2.95;;;3.30;99.90;;;;;;5098231;28;20020;-78
2022/12/12 00:53:58;;;;;;;5.43;3.08;;;3.20;99.90;;;;;;5098155;28;20443;-78
2022/12/12 00:56:24;;;;;;;4.47;3.00;;;3.30;99.90;;;;;;5097677;28;20028;-78
2022/12/12 00:58:51;;;;;;;5.03;3.22;;;3.30;99.90;;;;;;5103362;28;20040;-78
2022/12/12 01:01:28;;;;;;;5.00;3.55;;;3.30;99.90;;;;;;5081226;28;20024;-78
2022/12/12 01:03:54;;;;;;;5.28;3.03;;;3.30;99.90;;;;;;5097565;28;20090;-78
2022/12/12 01:06:20;;;;;;;4.38;2.60;;;3.30;99.90;;;;;;5097833;28;20500;-78
2022/12/12 01:08:46;;;;;;;5.22;3.00;;;3.40;99.90;;;;;;5097683;28;20548;-78
2022/12/12 01:11:12;;;;;;;4.70;2.95;;;3.40;99.90;;;;;;5097844;28;20028;-78
2022/12/12 01:13:38;;;;;;;4.45;2.80;;;3.60;99.90;;;;;;5097575;28;20026;-78
2022/12/12 01:16:05;;;;;;;4.88;3.30;;;3.60;99.90;;;;;;5097840;28;20051;-78
2022/12/12 01:18:31;;;;;;;5.72;3.17;;;3.60;99.90;;;;;;5097324;28;20450;-78
2022/12/12 01:20:57;;;;;;;4.95;3.50;;;3.60;99.90;;;;;;5097518;28;20032;-78
2022/12/12 01:23:23;;;;;;;5.28;3.30;;;3.60;99.90;;;;;;5097403;28;20027;-78
2022/12/12 01:25:49;;;;;;;4.75;2.55;;;3.40;99.90;;;;;;5097631;28;20041;-78
2022/12/12 01:28:15;;;;;;;4.00;2.60;;;3.50;99.90;;;;;;5097395;28;20020;-78
2022/12/12 01:30:41;;;;;;;4.68;3.30;;;3.60;99.90;;;;;;5097648;28;20469;-78
2022/12/12 01:33:06;;;;;;;4.30;2.60;;;3.50;99.90;;;;;;5097170;28;20028;-78
2022/12/12 01:35:33;;;;;;;3.88;2.35;;;3.50;99.90;;;;;;5097215;28;20020;-78
2022/12/12 01:37:59;;;;;;;5.80;3.40;;;3.50;99.90;;;;;;5082789;28;20024;-78
2022/12/12 01:40:27;;;;;;;5.50;2.92;;;3.50;99.90;;;;;;5097447;28;20504;-76
2022/12/12 01:42:53;;;;;;;4.20;2.72;;;3.50;99.90;;;;;;5105582;28;20412;-76
2022/12/12 01:45:56;;;;;;;4.07;2.90;;;3.40;99.90;;;;;;5114636;28;20028;-77
2022/12/12 01:48:27;;;;;;;4.50;2.97;;;3.40;99.90;;;;;;5095695;28;20024;-79
2022/12/12 01:50:54;;;;;;;3.60;2.55;;;3.50;99.90;;;;;;5102215;28;20020;-79
2022/12/12 01:53:20;;;;;;;3.40;2.53;;;3.60;99.90;;;;;;5079262;28;20024;-79
2022/12/12 01:55:48;;;;;;;3.80;2.45;;;3.70;99.90;;;;;;5112227;28;20369;-79
2022/12/12 01:58:15;;;;;;;4.18;2.78;;;3.70;99.90;;;;;;5097101;28;20399;-79
2022/12/12 02:00:41;;;;;;;5.07;3.17;;;3.60;99.90;;;;;;5104403;28;20099;-79
2022/12/12 02:03:07;;;;;;;4.28;3.35;;;3.50;99.90;;;;;;5098175;28;20063;-77
2022/12/12 02:05:37;;;;;;;4.78;2.85;;;3.50;99.90;;;;;;5108937;28;20028;-76
2022/12/12 02:08:05;;;;;;;5.22;3.05;;;3.40;99.90;;;;;;5107740;28;20017;-77
2022/12/12 02:10:31;;;;;;;4.53;2.60;;;3.30;99.90;;;;;;5090251;28;20094;-77
2022/12/12 02:13:07;;;;;;;4.30;3.10;;;3.30;99.90;;;;;;5097227;28;20028;-76
2022/12/12 02:16:05;;;;;;;3.80;2.60;;;3.40;99.90;;;;;;5106825;28;20028;-76
2022/12/12 02:18:58;;;;;;;3.80;2.50;;;3.40;99.90;;;;;;5110473;28;20024;-77
2022/12/12 02:21:38;;;;;;;4.30;2.83;;;3.40;99.90;;;;;;5097087;28;20107;-77
2022/12/12 02:24:42;;;;;;;4.82;2.92;;;3.30;99.90;;;;;;5111013;28;20028;-77
2022/12/12 02:27:10;;;;;;;;;;;3.30;99.90;;;;;;5096276;28;20540;-77
2022/12/12 02:29:55;;;;;;;4.10;2.72;;;3.40;99.90;;;;;;5108303;28;20007;-76
2022/12/12 02:32:33;;;;;;;3.13;2.13;;;3.30;99.90;;;;;;5112101;28;20031;-76
2022/12/12 02:35:12;;;;;;;3.63;2.83;;;3.30;99.90;;;;;;5087968;28;20032;-76
2022/12/12 02:37:48;;;;;;;4.13;2.80;;;3.30;99.90;;;;;;5114024;28;20441;-76
2022/12/12 02:40:20;;;;;;;5.13;2.78;;;3.30;99.90;;;;;;5107449;28;20051;-76
2022/12/12 02:43:04;;;;;;;3.92;2.78;;;3.20;99.90;;;;;;5115698;28;20039;-76
2022/12/12 02:45:32;;;;;;;;;;;3.20;99.90;;;;;;5093031;28;20103;-76
2022/12/12 02:48:07;;;;;;;4.30;2.55;;;3.30;99.90;;;;;;5116435;28;20006;-76
2022/12/12 02:50:34;;;;;;;3.53;2.00;;;3.30;99.90;;;;;;5116763;28;20020;-76
2022/12/12 02:52:59;;;;;;;3.63;2.33;;;3.40;99.90;;;;;;5117197;28;20027;-76
2022/12/12 02:55:25;;;;;;;3.78;2.55;;;3.40;99.90;;;;;;5114392;28;20019;-76
2022/12/12 02:57:53;;;;;;;4.22;2.75;;;3.40;99.90;;;;;;5107305;28;20114;-77
2022/12/12 03:00:20;;;;;;;3.65;2.67;;;3.40;99.90;;;;;;5095316;28;20052;-76
2022/12/12 03:07:45;;;;;;;5.07;2.95;;;3.40;99.90;;;;;;5116706;28;20135;-76
2022/12/12 03:08:57;;;;;;;3.85;2.30;;;3.50;99.90;;;;;;5100715;28;20053;-77
2022/12/12 03:11:51;;;;;;;4.13;2.60;;;3.50;99.90;;;;;;5104352;28;20108;-78
2022/12/12 03:14:25;;;;;;;3.22;2.05;;;3.50;99.90;;;;;;5069725;28;20024;-78
2022/12/12 03:17:14;;;;;;;3.55;2.20;;;3.60;99.90;;;;;;5108351;28;20028;-76
2022/12/12 03:19:50;;;;;;;5.07;2.85;;;3.60;99.90;;;;;;5096512;28;20106;-77
2022/12/12 03:22:15;;;;;;;4.15;2.75;;;3.60;99.90;;;;;;5100128;28;20035;-78
2022/12/12 03:24:50;;;;;;;3.45;2.25;;;3.60;99.90;;;;;;5099601;28;20384;-77
2022/12/12 03:27:35;;;;;;;3.97;2.35;;;3.50;99.90;;;;;;5081839;28;20024;-78
2022/12/12 03:30:07;;;;;;;3.97;2.83;;;3.60;99.90;;;;;;5099930;28;20020;-77
2022/12/12 03:32:37;;;;;;;3.15;2.28;;;3.60;99.90;;;;;;5115508;28;20027;-77
2022/12/12 03:35:12;;;;;;;4.88;3.08;;;3.60;99.90;;;;;;5089684;28;20039;-78
2022/12/12 03:37:44;;;;;;;4.38;2.58;;;3.60;99.90;;;;;;5112984;28;20042;-78
2022/12/12 03:40:18;;;;;;;3.70;2.30;;;3.60;99.90;;;;;;5112660;28;20032;-78
2022/12/12 03:42:51;;;;;;;4.32;2.72;;;3.60;99.90;;;;;;5106155;28;20548;-78
2022/12/12 03:45:33;;;;;;;3.40;2.60;;;3.50;99.90;;;;;;5097696;28;20521;-77
2022/12/12 03:48:12;;;;;;;4.07;2.90;;;3.50;99.90;;;;;;5113497;28;20020;-77
2022/12/12 03:51:01;;;;;;;3.78;2.35;;;3.40;99.90;;;;;;5087936;28;20035;-77
2022/12/12 03:53:42;;;;;;;4.40;2.60;;;3.40;99.90;;;;;;5099059;28;20031;-78
2022/12/12 03:56:21;;;;;;;4.45;2.50;;;3.40;99.90;;;;;;5086411;28;20024;-78
2022/12/12 03:59:05;;;;;;;3.65;2.30;;;3.40;99.90;;;;;;5097149;28;20365;-77
2022/12/12 04:01:40;;;;;;;3.17;2.22;;;3.30;99.90;;;;;;5093787;28;20064;-77
2022/12/12 04:04:21;;;;;;;4.28;2.25;;;3.30;99.90;;;;;;5098244;28;20024;-77
2022/12/12 04:06:59;;;;;;;3.08;2.15;;;3.50;99.90;;;;;;5098901;28;20020;-77
2022/12/12 04:12:57;;;;;;;4.13;3.17;;;3.50;99.90;;;;;;5099038;28;20472;-79
2022/12/12 04:15:48;;;;;;;3.38;2.22;;;3.50;99.90;;;;;;5069123;28;20039;-79
2022/12/12 04:18:37;;;;;;;3.05;2.00;;;3.60;99.90;;;;;;5080400;28;20028;-79
2022/12/12 04:24:09;;;;;;;4.10;2.40;;;3.80;99.90;;;;;;5098599;28;20081;-78
2022/12/12 04:26:43;;;;;;;4.40;2.50;;;3.80;99.90;;;;;;5098375;28;20024;-78
2022/12/12 04:29:18;;;;;;;4.70;2.80;;;3.70;99.90;;;;;;5098446;28;20024;-78
2022/12/12 04:31:55;;;;;;;4.30;2.90;;;3.70;99.90;;;;;;5098168;28;20024;-78
2022/12/12 04:34:43;;;;;;;3.78;2.78;;;3.60;99.90;;;;;;5097503;28;20024;-78
2022/12/12 04:37:14;;;;;;;4.07;2.78;;;3.60;99.90;;;;;;5098312;28;20043;-78
2022/12/12 04:39:41;;;;;;;4.78;3.03;;;3.60;99.90;;;;;;5097570;28;20023;-77
2022/12/12 04:42:12;;;;;;;5.15;2.83;;;3.60;99.90;;;;;;5097726;28;20024;-78
2022/12/12 04:44:41;;;;;;;4.88;3.00;;;3.60;99.90;;;;;;5097955;28;20043;-78
2022/12/12 04:47:08;;;;;;;5.40;2.85;;;3.60;99.90;;;;;;5097850;28;20028;-77
2022/12/12 04:49:35;;;;;;;4.38;2.78;;;3.60;99.90;;;;;;5079539;28;20053;-77
2022/12/12 04:52:07;;;;;;;3.92;2.60;;;3.60;99.90;;;;;;5098248;28;20020;-78
2022/12/12 04:54:40;;;;;;;3.97;2.47;;;3.60;99.90;;;;;;5097904;28;20012;-78
2022/12/12 04:57:10;;;;;;;3.72;2.55;;;3.60;99.90;;;;;;5097783;28;20125;-77
2022/12/12 04:59:36;;;;;;;4.18;3.05;;;3.50;99.90;;;;;;5097900;28;20044;-78
2022/12/12 05:02:35;;;;;;;4.60;2.63;;;3.50;99.90;;;;;;5097493;28;20023;-78
2022/12/12 05:05:08;;;;;;;4.05;2.38;;;3.50;99.90;;;;;;5097945;28;20408;-77
2022/12/12 05:07:39;;;;;;;3.85;2.38;;;3.50;99.90;;;;;;5097996;28;20051;-77
2022/12/12 05:10:09;;;;;;;4.20;2.47;;;3.50;99.90;;;;;;5097851;28;20020;-76
2022/12/12 05:12:47;;;;;;;4.10;2.72;;;3.50;99.90;;;;;;5096412;28;20020;-76
2022/12/12 05:15:14;;;;;;;3.67;2.42;;;3.60;99.90;;;;;;5079785;28;20116;-76
2022/12/12 05:18:07;;;;;;;3.83;2.53;;;3.60;99.90;;;;;;5097151;28;20458;-79
2022/12/12 05:20:32;;;;;;;4.60;2.65;;;3.60;99.90;;;;;;5093087;28;20038;-76
2022/12/12 05:22:58;;;;;;;3.92;2.47;;;3.70;99.90;;;;;;5108393;28;20036;-76
2022/12/12 05:25:24;;;;;;;4.38;2.78;;;3.70;99.90;;;;;;5099591;28;20049;-76
2022/12/12 05:27:49;;;;;;;4.57;2.88;;;3.70;99.90;;;;;;5079328;28;20080;-76
2022/12/12 05:30:16;;;;;;;5.10;3.13;;;3.70;99.90;;;;;;5097307;28;20024;-76
2022/12/12 05:32:41;;;;;;;5.03;2.60;;;3.70;99.90;;;;;;5097153;28;20048;-76
2022/12/12 05:35:08;;;;;;;4.72;2.58;;;3.80;99.90;;;;;;5078939;28;20054;-78
2022/12/12 05:37:34;;;;;;;3.78;2.20;;;3.80;99.90;;;;;;5079573;28;20019;-77
2022/12/12 05:39:59;;;;;;;3.95;2.50;;;3.80;99.90;;;;;;5096977;28;20392;-77
2022/12/12 05:42:25;;;;;;;4.40;2.70;;;3.80;99.90;;;;;;5078804;28;20039;-76
2022/12/12 05:44:51;;;;;;;4.35;2.97;;;3.80;99.90;;;;;;5097342;28;20392;-76
2022/12/12 05:47:17;;;;;;;4.70;2.90;;;3.80;99.90;;;;;;5097144;28;20480;-76
2022/12/12 05:49:43;;;;;;;3.90;2.40;;;3.70;99.90;;;;;;5097012;28;20024;-77
2022/12/12 05:52:09;;;;;;;4.63;2.78;;;3.80;99.90;;;;;;5097141;28;20020;-77
2022/12/12 05:54:35;;;;;;;4.80;3.15;;;3.80;99.90;;;;;;5097476;28;20050;-77
2022/12/12 05:57:01;;;;;;;4.97;3.13;;;3.70;99.90;;;;;;5079008;28;20035;-77
2022/12/12 05:59:28;;;;;;;6.00;3.20;;;3.60;99.90;;;;;;5100129;28;20059;-77
2022/12/12 06:01:53;;;;;;;4.40;2.92;;;3.60;99.90;;;;;;5100992;28;20020;-77
2022/12/12 06:04:19;;;;;;;4.35;3.00;;;3.60;99.90;;;;;;5100865;28;20035;-77
2022/12/12 06:06:45;;;;;;;3.97;2.65;;;3.50;99.90;;;;;;5082944;28;20498;-78
2022/12/12 06:09:11;;;;;;;4.45;2.78;;;3.60;99.90;;;;;;5100803;28;20024;-77
2022/12/12 06:11:37;;;;;;;4.47;3.03;;;3.60;99.90;;;;;;5104078;28;20476;-77
2022/12/12 06:14:03;;;;;;;4.53;2.75;;;3.70;99.90;;;;;;5100782;28;20024;-76
2022/12/12 06:16:28;;;;;;;4.47;2.92;;;3.70;99.90;;;;;;5111735;28;20038;-79
2022/12/12 06:18:56;;;;;;;4.65;2.80;;;3.70;99.90;;;;;;5098502;28;20020;-78
2022/12/12 06:21:22;;;;;;;3.92;2.50;;;3.70;99.90;;;;;;5100876;28;20078;-78
2022/12/12 06:23:48;;;;;;;4.65;2.90;;;3.70;99.90;;;;;;5100691;28;20028;-76
2022/12/12 06:26:15;;;;;;;4.25;3.00;;;3.70;99.90;;;;;;5100604;28;20112;-76
2022/12/12 06:28:41;;;;;;;4.85;2.80;;;3.70;99.90;;;;;;5100822;28;20024;-76
2022/12/12 06:31:08;;;;;;;4.57;2.85;;;3.70;99.90;;;;;;5100831;28;20084;-77
2022/12/12 06:33:34;;;;;;;4.15;2.97;;;3.70;99.90;;;;;;5100521;28;20027;-78
2022/12/12 06:36:10;;;;;;;4.63;2.95;;;3.70;99.90;;;;;;5100744;28;20094;-78
2022/12/12 06:38:37;;;;;;;5.13;2.80;;;3.70;99.90;;;;;;5108618;28;20035;-78
2022/12/12 06:41:11;;;;;;;4.40;2.67;;;3.60;99.90;;;;;;5099519;28;20031;-78
2022/12/12 06:43:38;;;;;;;5.53;2.97;;;3.60;99.90;;;;;;5089417;28;20034;-79
2022/12/12 06:46:06;;;;;;;4.03;2.95;;;3.60;99.90;;;;;;5099860;28;20368;-78
2022/12/12 06:48:33;;;;;;;5.45;3.13;;;3.60;99.90;;;;;;5100393;28;20454;-79
2022/12/12 06:50:59;;;;;;;3.67;2.50;;;3.70;99.90;;;;;;5081635;28;20047;-78
2022/12/12 06:53:25;;;;;;;4.03;2.78;;;3.70;99.90;;;;;;5100369;28;20024;-78
2022/12/12 06:55:51;;;;;;;3.42;2.45;;;3.70;99.90;;;;;;5100430;28;20039;-78
2022/12/12 06:58:16;;;;;;;4.38;3.08;;;3.70;99.90;;;;;;5082202;28;20024;-78
2022/12/12 07:00:42;;;;;;;4.60;2.85;;;3.70;99.90;;;;;;5100360;28;20482;-77
2022/12/12 07:03:11;;;;;;;5.07;2.92;;;3.70;99.90;;;;;;5100065;28;20028;-78
2022/12/12 07:05:36;;;;;;;3.10;2.25;;;3.70;99.90;;;;;;5081720;28;20146;-79
2022/12/12 07:08:03;;;;;;;5.05;2.80;;;3.70;99.90;;;;;;5082117;28;20062;-78
2022/12/12 07:10:29;;;;;;;4.53;2.67;;;3.60;99.90;;;;;;5081448;28;20024;-78
2022/12/12 07:12:55;;;;;;;4.55;2.75;;;3.60;99.90;;;;;;5099934;28;20028;-79
2022/12/12 07:15:21;;;;;;;4.15;2.53;;;3.60;99.90;;;;;;5081610;28;20119;-78
2022/12/12 07:17:47;;;;;;;3.92;2.50;;;3.50;99.90;;;;;;5099657;28;20056;-78
2022/12/12 07:20:12;;;;;;;4.18;2.80;;;3.50;99.90;;;;;;5081706;28;20036;-78
2022/12/12 07:22:38;;;;;;;4.18;2.53;;;3.50;99.90;;;;;;5081424;28;20035;-79
2022/12/12 07:25:06;;;;;;;3.70;2.70;;;3.60;99.90;;;;;;5099821;28;20154;-79
2022/12/12 07:27:32;;;;;;;4.80;3.03;;;3.50;99.90;;;;;;5081410;28;20016;-79
2022/12/12 07:29:57;;;;;;;4.97;2.58;;;3.50;99.90;;;;;;5081738;28;20119;-79
2022/12/12 07:32:23;;;;;;;4.65;2.70;;;3.50;99.90;;;;;;5081090;28;20092;-79
2022/12/12 07:34:49;;;;;;;4.25;2.60;;;3.60;99.90;;;;;;5099514;28;20024;-79
2022/12/12 07:37:14;;;;;;;3.78;2.80;;;3.60;99.90;;;;;;5099313;28;20509;-79
2022/12/12 07:39:40;;;;;;;4.60;2.70;;;3.60;99.90;;;;;;5099328;28;20107;-79
2022/12/12 07:42:06;;;;;;;4.10;2.28;;;3.60;99.90;;;;;;5081218;28;20032;-79
2022/12/12 07:44:31;;;;;;;3.90;2.25;;;3.60;99.90;;;;;;5099418;28;20031;-79
2022/12/12 07:46:57;;;;;;;3.63;2.10;;;3.60;99.90;;;;;;5098862;28;20078;-79
2022/12/12 07:49:23;;;;;;;3.90;2.30;;;3.60;99.90;;;;;;5081163;28;20460;-78
2022/12/12 07:51:49;;;;;;;3.92;2.47;;;3.60;99.90;;;;;;5099102;28;20116;-79
2022/12/12 07:54:15;;;;;;;4.93;2.60;;;3.50;99.90;;;;;;5099213;28;20036;-78
2022/12/12 07:56:40;;;;;;;3.60;2.28;;;3.50;99.90;;;;;;5098832;28;20481;-78
2022/12/12 07:59:06;;;;;;;3.90;2.70;;;3.50;99.90;;;;;;5080869;28;20137;-78
2022/12/12 08:01:32;;;;;;;4.57;2.80;;;3.50;99.90;;;;;;5080533;28;20024;-80
2022/12/12 08:03:58;;;;;;;4.18;2.83;;;3.50;99.90;;;;;;5078937;28;20507;-80
2022/12/12 08:06:24;;;;;;;5.63;2.50;;;3.50;99.90;;;;;;5089002;28;20023;-80
2022/12/12 08:08:51;;;;;;;4.60;2.60;;;3.50;99.90;;;;;;5083854;28;20495;-79
2022/12/12 08:11:21;;;;;;;4.32;2.55;;;3.50;99.90;;;;;;5092947;28;20043;-79
2022/12/12 08:13:51;;;;;;;4.43;2.63;;;3.50;99.90;;;;;;5095626;28;20032;-80
2022/12/12 08:16:23;;;;;;;3.72;2.13;;;3.50;99.90;;;;;;5080227;28;20024;-79
2022/12/12 08:18:51;;;;;;;3.50;2.30;;;3.40;99.90;;;;;;5098162;28;20016;-78
2022/12/12 08:21:18;;;;;;;3.85;2.35;;;3.50;99.90;;;;;;5097326;28;20024;-78
2022/12/12 08:23:44;;;;;;;3.97;2.38;;;3.40;99.90;;;;;;5080016;28;20024;-78
2022/12/12 08:26:13;;;;;;;5.07;2.55;;;3.40;99.90;;;;;;5097179;28;20629;-78
2022/12/12 08:28:48;;;;;;;4.18;2.40;;;3.30;99.90;;;;;;5096638;28;20027;-78
2022/12/12 08:31:19;;;;;;;3.95;2.20;;;3.30;99.90;;;;;;5097184;28;20024;-76
2022/12/12 08:33:45;;;;;;;3.67;2.00;;;3.30;99.90;;;;;;5078428;28;20115;-76
2022/12/12 08:36:32;;;;;;;3.47;2.13;;;3.30;99.90;;;;;;5078291;28;20109;-66
2022/12/12 08:39:01;;;;;;;3.78;2.22;;;3.30;99.90;;;;;;5078144;28;20028;-68
2022/12/12 08:41:27;;;;;;;4.20;2.30;;;3.20;99.90;;;;;;5096932;28;20424;-78
2022/12/12 08:43:53;;;;;;;3.40;2.00;;;3.20;99.90;;;;;;5096261;28;20093;-72
2022/12/12 08:46:20;;;;;;;3.38;2.20;;;3.30;99.90;;;;;;5094888;28;20114;-69
2022/12/12 08:48:46;;;;;;;4.18;2.20;;;3.30;99.90;;;;;;5097643;28;20103;-69
2022/12/12 08:51:13;;;;;;;3.88;2.20;;;3.30;99.90;;;;;;5097037;28;20099;-69
2022/12/12 08:53:39;;;;;;;3.42;1.88;;;3.40;99.90;;;;;;5095294;28;20418;-69
2022/12/12 08:56:05;;;;;;;2.45;1.80;;;3.30;99.90;;;;;;5097458;28;20031;-70
2022/12/12 08:58:30;;;;;;;2.85;1.80;;;3.30;99.90;;;;;;5096662;28;20044;-76
2022/12/12 09:00:56;;;;;;;3.35;2.03;;;3.40;99.90;;;;;;5083281;28;20032;-76
2022/12/12 09:03:22;;;;;;;2.83;1.80;;;3.40;99.90;;;;;;5099844;28;20085;-72
2022/12/12 09:05:48;;;;;;;3.20;1.70;;;3.40;99.90;;;;;;5106645;28;20054;-74
2022/12/12 09:08:14;;;;;;;2.78;1.60;;;3.50;99.90;;;;;;5079894;28;20077;-73
2022/12/12 09:10:41;;;;;;;3.40;2.05;;;3.50;99.90;;;;;;5096808;28;20038;-76
2022/12/12 09:13:07;;;;;;;2.92;2.00;;;3.50;99.90;;;;;;5094111;28;20035;-74
2022/12/12 09:15:34;;;;;;;3.00;2.00;;;3.50;99.90;;;;;;5096365;28;20032;-74
2022/12/12 09:18:00;;;;;;;3.50;1.90;;;3.50;99.90;;;;;;5099081;28;20038;-75
2022/12/12 09:20:26;;;;;;;2.83;1.92;;;3.50;99.90;;;;;;5078072;28;20494;-73
2022/12/12 09:22:51;;;;;;;3.63;2.15;;;3.50;99.90;;;;;;5078351;28;20032;-74
2022/12/12 09:25:18;;;;;;;2.95;2.08;;;3.60;99.90;;;;;;5096552;28;20361;-79
2022/12/12 09:27:43;;;;;;;2.47;1.88;;;3.50;99.90;;;;;;5077855;28;20031;-77
2022/12/12 09:30:10;;;;;;;3.28;2.03;;;3.40;99.90;;;;;;5096686;28;20391;-77
2022/12/12 09:32:35;;;;;;;2.28;1.67;;;3.40;99.90;;;;;;5096124;28;20028;-77
2022/12/12 09:35:01;;;;;;;2.72;2.03;;;3.40;99.90;;;;;;5099974;28;20020;-77
2022/12/12 09:37:27;;;;;;;3.10;1.90;;;3.40;99.90;;;;;;5083175;28;20555;-74
2022/12/12 09:39:53;;;;;;;2.90;2.08;;;3.40;99.90;;;;;;5085159;28;20101;-74
2022/12/12 09:42:33;;;;;;;2.83;2.42;;;3.30;99.90;;;;;;5084040;28;20123;-76
2022/12/12 09:45:04;;;;;;;3.00;1.80;;;3.30;99.90;;;;;;5113502;28;20456;-76
2022/12/12 09:47:40;;;;;;;3.25;2.28;;;3.30;99.90;;;;;;5085830;28;20028;-76
2022/12/12 09:50:32;;;;;;;3.95;2.13;;;3.40;99.90;;;;;;5098634;28;20028;-73
2022/12/12 09:53:03;;;;;;;3.65;2.40;;;3.40;99.90;;;;;;5102362;28;20039;-73
2022/12/12 09:55:48;;;;;;;2.65;1.95;;;3.50;99.90;;;;;;5085813;28;20034;-73
2022/12/12 09:58:22;;;;;;;4.15;2.13;;;3.50;99.90;;;;;;5108158;28;20031;-73
2022/12/12 10:01:12;;;;;;;3.72;2.30;;;3.40;99.90;;;;;;5081261;28;20123;-74
2022/12/12 10:04:07;;;;;;;2.97;2.03;;;3.40;99.90;;;;;;5096043;28;20040;-74
2022/12/12 10:06:49;;;;;;;3.03;2.10;;;3.60;99.90;;;;;;5093813;28;20047;-77
2022/12/12 10:09:38;;;;;;;2.90;2.00;;;3.60;99.90;;;;;;5110118;28;20098;-76
2022/12/12 10:12:10;;;;;;;3.10;2.30;;;3.60;99.90;;;;;;5086213;28;20020;-75
2022/12/12 10:14:51;;;;;;;2.95;1.88;;;3.60;99.90;;;;;;5102033;28;20012;-77
2022/12/12 10:17:31;;;;;;;2.85;2.13;;;3.60;99.90;;;;;;5104343;28;20024;-75
2022/12/12 10:20:19;;;;;;;3.33;2.15;;;3.70;99.90;;;;;;5099359;28;20085;-75
2022/12/12 10:22:55;;;;;;;3.78;2.33;;;3.70;99.90;;;;;;5095926;28;20404;-76
2022/12/12 10:25:47;;;;;;;4.57;3.30;;;3.80;99.90;;;;;;5090400;28;20035;-77
2022/12/12 10:28:16;;;;;;;4.05;2.78;;;3.70;99.90;;;;;;5087886;28;20039;-75
2022/12/12 10:31:00;;;;;;;3.90;2.50;;;3.70;99.90;;;;;;5085413;28;20016;-74
2022/12/12 10:33:48;;;;;;;3.50;2.13;;;3.60;99.90;;;;;;5089752;28;20031;-77
2022/12/12 10:36:32;;;;;;;3.67;2.50;;;3.60;99.90;;;;;;5087312;28;20932;-76
2022/12/12 10:38:58;;;;;;;4.68;2.78;;;3.50;99.90;;;;;;5098114;28;20028;-75
2022/12/12 10:41:52;;;;;;;3.40;2.47;;;3.50;99.90;;;;;;5096025;28;20035;-75
2022/12/12 10:44:17;;;;;;;;;;;3.50;99.90;;;;;;5109839;28;20061;-76
2022/12/12 10:46:59;;;;;;;3.63;2.25;;;3.60;99.90;;;;;;5110911;28;19956;-77
2022/12/12 10:49:25;;;;;;;4.03;2.55;;;3.60;99.90;;;;;;5099038;28;20024;-76
2022/12/12 10:51:52;;;;;;;4.80;3.17;;;3.50;99.90;;;;;;5090406;28;20030;-77
2022/12/12 10:54:22;;;;;;;4.68;2.80;;;3.40;99.90;;;;;;5084415;28;20119;-77
2022/12/12 10:57:18;;;;;;;5.30;3.38;;;3.40;99.90;;;;;;5106998;28;20024;-76
2022/12/12 10:59:49;;;;;;;5.50;3.63;;;3.50;99.90;;;;;;5099981;28;20044;-76
2022/12/12 11:02:38;;;;;;;4.75;3.30;;;3.50;99.90;;;;;;5083160;28;20032;-75
2022/12/12 11:05:20;;;;;;;5.95;3.38;;;3.50;99.90;;;;;;5075469;28;20565;-76
2022/12/12 11:07:56;;;;;;;7.07;4.60;;;3.40;99.90;;;;;;5084653;28;20028;-73
2022/12/12 11:10:26;;;;;;;7.55;4.20;;;3.40;99.90;;;;;;5098912;28;20036;-73
2022/12/12 11:12:56;;;;;;;7.82;4.88;;;3.30;99.90;;;;;;5096384;28;20095;-75
2022/12/12 11:15:30;;;;;;;8.18;5.25;;;3.40;99.90;;;;;;5082440;28;20028;-73
2022/12/12 11:17:57;;;;;;;8.85;5.80;;;3.40;99.90;;;;;;5118790;27;20032;-74
2022/12/12 11:20:24;;;;;;;8.43;5.05;;;3.40;99.90;;;;;;5107346;28;20138;-73
2022/12/12 11:22:55;;;;;;;10.55;5.68;;;3.50;99.90;;;;;;5086082;28;20028;-73
2022/12/12 11:25:30;;;;;;;7.85;4.85;;;3.50;99.90;;;;;;5089618;28;20027;-73
2022/12/12 11:28:02;;;;;;;9.18;5.28;;;3.40;99.90;;;;;;5086192;28;20016;-73
2022/12/12 11:30:36;;;;;;;8.10;5.03;;;3.40;99.90;;;;;;5076971;28;20019;-71
2022/12/12 11:33:05;;;;;;;6.72;4.53;;;3.40;99.90;;;;;;5081964;28;20107;-71
2022/12/12 11:35:34;;;;;;;8.27;5.30;;;3.40;99.90;;;;;;5098610;28;20541;-75
2022/12/12 11:38:06;;;;;;;10.07;6.28;;;3.30;99.90;;;;;;5107735;28;20044;-74
2022/12/12 11:40:36;;;;;;;7.25;5.18;;;3.20;99.90;;;;;;5078412;28;20027;-73
2022/12/12 11:43:25;;;;;;;9.23;5.65;;;3.10;99.90;;;;;;5101979;28;20046;-76
2022/12/12 11:46:18;;;;;;;8.55;5.88;;;3.10;99.90;;;;;;5081137;28;20042;-75
2022/12/12 11:48:53;;;;;;;8.35;5.50;;;3.20;99.90;;;;;;5079545;28;20067;-77
2022/12/12 11:51:34;;;;;;;7.72;5.30;;;3.20;99.90;;;;;;5083955;28;20036;-73
2022/12/12 11:54:22;;;;;;;8.60;5.88;;;3.10;99.90;;;;;;5083094;28;20116;-73
2022/12/12 11:56:54;;;;;;;9.63;5.88;;;3.10;99.90;;;;;;5111428;27;20029;-75
2022/12/12 11:59:53;;;;;;;8.57;5.93;;;3.10;99.90;;;;;;5098796;28;20051;-75
2022/12/12 12:02:31;;;;;;;8.98;5.47;;;3.10;99.90;;;;;;5081983;28;20038;-74
2022/12/12 12:05:03;;;;;;;8.95;5.35;;;3.10;99.90;;;;;;5082504;28;20028;-74
2022/12/12 12:07:49;;;;;;;8.52;5.43;;;3.20;99.90;;;;;;5107459;28;20020;-73
2022/12/12 12:10:27;;;;;;;8.73;5.30;;;3.30;99.90;;;;;;5099575;28;20030;-74
2022/12/12 12:13:31;;;;;;;8.75;5.45;;;3.40;99.90;;;;;;5104340;28;20551;-74
2022/12/12 12:15:56;;;;;;;;;;;3.50;99.90;;;;;;5075310;28;20051;-72
2022/12/12 12:18:41;;;;;;;7.47;4.82;;;3.50;99.90;;;;;;5099874;28;19907;-72
2022/12/12 12:21:38;;;;;;;7.72;5.20;;;3.50;99.90;;;;;;5110035;28;20483;-73
2022/12/12 12:24:18;;;;;;;7.32;5.43;;;3.70;99.90;;;;;;5102077;28;20036;-73
2022/12/12 12:27:17;;;;;;;9.70;5.55;;;3.70;99.90;;;;;;5091112;28;20020;-74
2022/12/12 12:29:46;;;;;;;10.15;6.45;;;3.70;99.90;;;;;;5088663;28;20031;-73
2022/12/12 12:32:40;;;;;;;8.95;6.10;;;3.60;99.90;;;;;;5103931;28;20099;-73
2022/12/12 12:35:28;;;;;;;10.05;6.15;;;3.60;99.90;;;;;;5096012;28;20371;-73
2022/12/12 12:38:05;;;;;;;8.07;5.72;;;3.50;99.90;;;;;;5106355;28;20028;-74
2022/12/12 12:40:46;;;;;;;9.65;6.47;;;3.50;99.90;;;;;;5076548;28;20016;-71
2022/12/12 12:43:37;;;;;;;10.32;6.40;;;3.60;99.90;;;;;;5107137;28;20032;-73
2022/12/12 12:46:36;;;;;;;10.50;7.15;;;3.50;99.90;;;;;;5102423;28;20023;-69
2022/12/12 12:49:39;;;;;;;11.45;6.72;;;3.50;99.90;;;;;;5093994;28;20016;-68
2022/12/12 12:52:11;;;;;;;11.25;7.07;;;3.50;99.90;;;;;;5045577;28;20036;-72
2022/12/12 12:54:45;;;;;;;11.70;6.60;;;3.40;99.90;;;;;;5085060;28;20035;-72
2022/12/12 12:57:23;;;;;;;10.40;7.22;;;3.40;99.90;;;;;;5100389;28;20034;-70
2022/12/12 12:59:52;;;;;;;10.88;7.25;;;3.40;99.90;;;;;;5097687;28;20047;-70
2022/12/12 13:02:29;;;;;;;12.57;7.20;;;3.40;99.90;;;;;;5094960;28;20496;-71
2022/12/12 13:05:29;;;;;;;10.98;7.47;;;3.40;99.90;;;;;;5094185;28;20020;-77
2022/12/12 13:08:01;;;;;;;11.50;6.68;;;3.40;99.90;;;;;;5101776;28;20062;-71
2022/12/12 13:10:29;;;;;;;12.63;8.05;;;3.40;99.90;;;;;;5102819;28;20020;-75
2022/12/12 13:12:58;;;;;;;11.95;7.13;;;3.50;99.90;;;;;;5090257;28;20106;-72
2022/12/12 13:15:30;;;;;;;9.70;6.90;;;3.50;99.90;;;;;;5099176;28;20020;-73
2022/12/12 13:18:04;;;;;;;10.85;7.05;;;3.60;99.90;;;;;;5109618;28;20036;-73
2022/12/12 13:20:37;;;;;;;12.25;7.00;;;3.70;99.90;;;;;;5081378;28;20016;-74
2022/12/12 13:23:11;;;;;;;10.57;6.55;;;3.70;99.90;;;;;;5100805;28;20535;-73
2022/12/12 13:25:50;;;;;;;10.98;7.10;;;3.70;99.90;;;;;;5078129;28;20031;-73
2022/12/12 13:28:21;;;;;;;10.38;6.07;;;3.80;99.90;;;;;;5108247;28;20119;-73
2022/12/12 13:31:23;;;;;;;11.85;6.95;;;3.80;99.90;;;;;;5078346;28;20111;-73
2022/12/12 13:33:56;;;;;;;9.98;6.65;;;3.80;99.90;;;;;;5093169;28;20024;-72